createdAt,value
2023-02-22T00:02:32.569Z,4.20
2023-02-22T00:05:25.224Z,4.30
2023-02-22T00:08:15.510Z,4.60
2023-02-22T00:11:13.413Z,4.50
2023-02-22T00:14:03.876Z,5.00
2023-02-22T00:16:56.432Z,5.10
2023-02-22T00:19:46.883Z,4.90
2023-02-22T00:22:38.067Z,5.10
2023-02-22T00:25:28.875Z,4.90
2023-02-22T00:28:20.479Z,4.60
2023-02-22T00:31:10.951Z,4.40
2023-02-22T00:34:01.552Z,4.40
2023-02-22T00:36:52.253Z,4.40
2023-02-22T00:39:42.182Z,4.30
2023-02-22T00:42:32.662Z,4.20
2023-02-22T00:45:26.072Z,4.50
2023-02-22T00:48:16.912Z,4.00
2023-02-22T00:51:08.679Z,3.90
2023-02-22T00:53:59.227Z,4.10
2023-02-22T00:56:50.651Z,4.30
2023-02-22T00:59:41.522Z,4.00
2023-02-22T01:02:31.576Z,4.10
2023-02-22T01:05:25.906Z,4.60
2023-02-22T01:08:17.661Z,4.00
2023-02-22T01:11:08.285Z,4.10
2023-02-22T01:14:00.098Z,4.00
2023-02-22T01:16:51.035Z,4.10
2023-02-22T01:19:42.792Z,4.20
2023-02-22T01:22:33.329Z,4.00
2023-02-22T01:25:25.950Z,4.30
2023-02-22T01:28:15.895Z,4.20
2023-02-22T01:31:06.698Z,4.30
2023-02-22T01:33:56.999Z,4.50
2023-02-22T01:36:47.636Z,4.70
2023-02-22T01:39:38.362Z,4.30
2023-02-22T01:42:30.614Z,4.10
2023-02-22T01:45:55.658Z,4.40
2023-02-22T01:48:50.647Z,4.30
2023-02-22T01:51:45.383Z,4.10
2023-02-22T01:54:39.027Z,4.70
2023-02-22T01:57:32.645Z,4.30
2023-02-22T02:00:27.825Z,4.70
2023-02-22T02:03:23.739Z,4.10
2023-02-22T02:06:17.212Z,4.10
2023-02-22T02:09:15.907Z,3.90
2023-02-22T02:12:08.145Z,4.20
2023-02-22T02:15:22.556Z,4.00
2023-02-22T02:18:15.065Z,3.90
2023-02-22T02:21:59.397Z,4.70
2023-02-22T02:25:22.502Z,3.90
2023-02-22T02:28:52.724Z,4.10
2023-02-22T02:32:10.624Z,4.10
2023-02-22T02:35:06.456Z,4.10
2023-02-22T02:38:05.942Z,4.10
2023-02-22T02:41:04.954Z,3.80
2023-02-22T02:44:00.995Z,4.40
2023-02-22T02:46:57.850Z,3.90
2023-02-22T02:49:53.214Z,3.90
2023-02-22T02:52:45.467Z,4.40
2023-02-22T02:55:37.101Z,4.30
2023-02-22T02:58:27.894Z,4.10
2023-02-22T03:01:22.872Z,4.00
2023-02-22T03:04:26.017Z,3.70
2023-02-22T03:07:34.925Z,4.50
2023-02-22T03:10:38.060Z,4.10
2023-02-22T03:13:38.071Z,4.10
2023-02-22T03:16:40.851Z,4.20
2023-02-22T03:19:39.467Z,3.90
2023-02-22T03:22:34.783Z,4.40
2023-02-22T03:25:29.613Z,3.80
2023-02-22T03:28:26.490Z,4.20
2023-02-22T03:31:24.009Z,4.20
2023-02-22T03:34:18.514Z,4.10
2023-02-22T03:37:15.996Z,4.20
2023-02-22T03:40:14.099Z,4.10
2023-02-22T03:43:15.008Z,4.00
2023-02-22T03:46:08.194Z,4.00
2023-02-22T03:49:04.768Z,4.00
2023-02-22T03:52:00.231Z,4.30
2023-02-22T03:54:53.836Z,4.00
2023-02-22T03:57:49.603Z,3.90
2023-02-22T04:00:44.810Z,4.10
2023-02-22T04:03:35.496Z,4.00
2023-02-22T04:06:26.436Z,4.20
2023-02-22T04:09:19.115Z,4.10
2023-02-22T04:12:11.007Z,3.90
2023-02-22T04:15:20.212Z,4.10
2023-02-22T04:18:14.716Z,4.20
2023-02-22T04:21:06.081Z,3.90
2023-02-22T04:24:03.814Z,3.60
2023-02-22T04:26:56.548Z,3.70
2023-02-22T04:29:47.351Z,3.70
2023-02-22T04:32:39.170Z,3.90
2023-02-22T04:35:30.776Z,3.70
2023-02-22T04:38:21.144Z,3.70
2023-02-22T04:41:12.519Z,4.10
2023-02-22T04:44:03.275Z,3.90
2023-02-22T04:46:54.847Z,3.80
2023-02-22T04:49:47.276Z,3.70
2023-02-22T04:52:38.218Z,4.00
2023-02-22T04:55:29.615Z,4.20
2023-02-22T04:58:19.906Z,4.00
2023-02-22T05:01:12.762Z,3.90
2023-02-22T05:03:46.756Z,4.20
2023-02-22T05:06:37.538Z,4.10
2023-02-22T05:09:27.913Z,3.80
2023-02-22T05:12:18.488Z,4.00
2023-02-22T05:15:11.498Z,3.90
2023-02-22T05:18:02.412Z,4.00
2023-02-22T05:20:52.979Z,4.10
2023-02-22T05:23:43.654Z,4.30
2023-02-22T05:26:34.420Z,4.40
2023-02-22T05:29:24.983Z,4.10
2023-02-22T05:32:15.331Z,4.40
2023-02-22T05:35:08.518Z,4.40
2023-02-22T05:38:00.064Z,4.20
2023-02-22T05:40:50.877Z,3.90
2023-02-22T05:43:42.356Z,4.10
2023-02-22T05:46:32.613Z,3.80
2023-02-22T05:49:23.109Z,4.20
2023-02-22T05:52:13.630Z,4.20
2023-02-22T05:55:04.838Z,4.10
2023-02-22T05:57:55.431Z,4.20
2023-02-22T06:00:45.288Z,4.20
2023-02-22T06:03:35.562Z,4.10
2023-02-22T06:06:25.621Z,5.00
2023-02-22T06:09:15.868Z,5.10
2023-02-22T06:12:06.762Z,4.50
2023-02-22T06:14:57.716Z,4.60
2023-02-22T06:17:47.855Z,4.50
2023-02-22T06:20:38.014Z,4.40
2023-02-22T06:23:28.798Z,4.70
2023-02-22T06:26:20.574Z,4.40
2023-02-22T06:29:11.000Z,4.10
2023-02-22T06:32:01.532Z,4.40
2023-02-22T06:34:51.553Z,4.50
2023-02-22T06:37:42.609Z,4.10
2023-02-22T06:40:33.880Z,4.30
2023-02-22T06:43:25.024Z,4.20
2023-02-22T06:46:15.515Z,4.50
2023-02-22T06:49:06.178Z,4.70
2023-02-22T06:51:56.582Z,4.40
2023-02-22T06:54:46.667Z,4.60
2023-02-22T06:57:37.166Z,5.10
2023-02-22T07:00:29.113Z,5.30
2023-02-22T07:03:20.280Z,5.00
2023-02-22T07:06:12.434Z,4.90
2023-02-22T07:09:02.452Z,5.60
2023-02-22T07:11:52.772Z,6.10
2023-02-22T07:14:44.176Z,5.10
2023-02-22T07:17:34.956Z,4.70
2023-02-22T07:20:25.684Z,4.70
2023-02-22T07:23:18.853Z,5.30
2023-02-22T07:26:08.876Z,5.40
2023-02-22T07:28:59.228Z,5.50
2023-02-22T07:31:49.759Z,5.60
2023-02-22T07:34:40.105Z,5.50
2023-02-22T07:37:30.936Z,5.20
2023-02-22T07:40:21.956Z,6.20
2023-02-22T07:43:19.013Z,6.50
2023-02-22T07:46:09.211Z,5.90
2023-02-22T07:48:59.212Z,6.90
2023-02-22T07:51:49.629Z,6.10
2023-02-22T07:54:39.855Z,6.20
2023-02-22T07:57:29.591Z,6.10
2023-02-22T08:00:26.170Z,5.90
2023-02-22T08:03:18.080Z,5.50
2023-02-22T08:06:09.263Z,5.10
2023-02-22T08:08:59.416Z,5.10
2023-02-22T08:11:49.907Z,5.50
2023-02-22T08:14:40.140Z,5.80
2023-02-22T08:17:29.922Z,6.40
2023-02-22T08:20:20.624Z,5.90
2023-02-22T08:23:10.999Z,4.90
2023-02-22T08:26:05.353Z,4.70
2023-02-22T08:28:55.195Z,5.10
2023-02-22T08:31:51.478Z,5.00
2023-02-22T08:34:42.011Z,4.90
2023-02-22T08:37:31.997Z,5.00
2023-02-22T08:40:23.207Z,4.90
2023-02-22T08:43:13.604Z,5.20
2023-02-22T08:46:03.755Z,5.00
2023-02-22T08:48:54.722Z,4.50
2023-02-22T08:51:44.794Z,4.10
2023-02-22T08:54:35.322Z,4.50
2023-02-22T08:57:25.884Z,3.70
2023-02-22T09:00:25.403Z,3.70
2023-02-22T09:03:16.624Z,4.20
2023-02-22T09:06:08.113Z,4.10
2023-02-22T09:08:58.220Z,4.90
2023-02-22T09:11:48.442Z,4.90
2023-02-22T09:14:38.379Z,4.20
2023-02-22T09:17:28.877Z,4.50
2023-02-22T09:20:21.323Z,4.20
2023-02-22T09:23:11.413Z,4.20
2023-02-22T09:26:01.431Z,4.10
2023-02-22T09:28:51.540Z,4.50
2023-02-22T09:31:42.788Z,4.60
2023-02-22T09:34:35.406Z,4.90
2023-02-22T09:37:25.682Z,5.30
2023-02-22T09:40:25.281Z,4.40
2023-02-22T09:43:36.997Z,4.30
2023-02-22T09:46:34.854Z,5.00
2023-02-22T09:49:31.397Z,5.10
2023-02-22T09:52:27.905Z,4.90
2023-02-22T09:55:31.160Z,4.20
2023-02-22T09:58:26.909Z,4.70
2023-02-22T10:01:27.166Z,5.40
2023-02-22T10:04:23.566Z,5.20
2023-02-22T10:07:25.109Z,5.30
2023-02-22T10:10:18.723Z,5.10
2023-02-22T10:13:21.676Z,5.00
2023-02-22T10:16:18.640Z,5.00
2023-02-22T10:19:23.769Z,4.70
2023-02-22T10:22:27.676Z,5.20
2023-02-22T10:25:23.590Z,4.70
2023-02-22T10:28:19.937Z,4.20
2023-02-22T10:31:18.706Z,4.50
2023-02-22T10:34:16.047Z,5.40
2023-02-22T10:37:18.156Z,5.00
2023-02-22T10:40:18.613Z,5.20
2023-02-22T10:43:11.203Z,4.60
2023-02-22T10:46:05.073Z,4.50
2023-02-22T10:49:00.259Z,5.00
2023-02-22T10:51:58.965Z,5.00
2023-02-22T10:54:54.431Z,4.90
2023-02-22T10:57:50.123Z,4.90
2023-02-22T11:00:44.493Z,4.70
2023-02-22T11:03:36.143Z,5.20
2023-02-22T11:06:26.299Z,4.30
2023-02-22T11:09:19.150Z,4.70
2023-02-22T11:12:18.848Z,5.20
2023-02-22T11:15:30.198Z,5.00
2023-02-22T11:18:30.421Z,5.10
2023-02-22T11:21:25.157Z,4.90
2023-02-22T11:27:08.419Z,4.50
2023-02-22T11:30:08.494Z,4.60
2023-02-22T11:33:02.145Z,4.40
2023-02-22T11:35:55.524Z,3.70
2023-02-22T11:38:59.757Z,3.70
2023-02-22T11:41:50.214Z,4.00
2023-02-22T11:44:44.075Z,4.30
2023-02-22T11:47:33.737Z,4.20
2023-02-22T11:50:35.222Z,4.30
2023-02-22T11:53:33.059Z,4.10
2023-02-22T11:56:37.261Z,3.90
2023-02-22T11:59:37.986Z,4.40
2023-02-22T12:02:51.795Z,4.40
2023-02-22T12:06:14.579Z,4.10
2023-02-22T12:09:14.293Z,4.60
2023-02-22T12:12:17.881Z,4.60
2023-02-22T12:15:14.904Z,4.30
2023-02-22T12:18:13.393Z,4.70
2023-02-22T12:21:08.040Z,4.90
2023-02-22T12:24:03.817Z,4.50
2023-02-22T12:26:58.801Z,3.90
2023-02-22T12:29:54.067Z,4.60
2023-02-22T12:32:47.808Z,4.60
2023-02-22T12:35:41.847Z,4.30
2023-02-22T12:38:37.465Z,4.60
2023-02-22T12:41:34.491Z,4.30
2023-02-22T12:44:29.846Z,4.70
2023-02-22T12:47:24.840Z,4.80
2023-02-22T12:50:20.593Z,5.00
2023-02-22T12:53:19.876Z,4.70
2023-02-22T12:56:22.669Z,4.40
2023-02-22T12:59:19.383Z,4.60
2023-02-22T13:02:19.828Z,4.60
2023-02-22T13:05:17.974Z,4.40
2023-02-22T13:08:25.494Z,4.90
2023-02-22T13:11:25.406Z,5.00
2023-02-22T13:14:31.322Z,4.70
2023-02-22T13:17:28.431Z,4.60
2023-02-22T13:20:24.595Z,4.30
2023-02-22T13:23:25.505Z,4.60
2023-02-22T13:26:22.812Z,4.80
2023-02-22T13:29:18.416Z,4.50
2023-02-22T13:32:26.643Z,4.50
2023-02-22T13:35:35.649Z,3.70
2023-02-22T13:38:48.255Z,4.00
2023-02-22T13:42:00.602Z,4.50
2023-02-22T13:45:27.131Z,4.40
2023-02-22T13:48:33.189Z,4.20
2023-02-22T13:51:41.115Z,3.90
2023-02-22T13:54:38.972Z,4.50
2023-02-22T13:57:34.354Z,4.20
2023-02-22T14:00:41.889Z,3.90
2023-02-22T14:03:42.566Z,4.40
2023-02-22T14:06:41.685Z,4.30
2023-02-22T14:09:49.800Z,4.40
2023-02-22T14:12:51.837Z,4.50
2023-02-22T14:16:24.556Z,4.30
2023-02-22T14:19:23.935Z,3.70
2023-02-22T14:22:14.665Z,3.70
2023-02-22T14:25:04.556Z,3.80
2023-02-22T14:27:54.887Z,3.80
2023-02-22T14:30:45.282Z,4.10
2023-02-22T14:33:56.788Z,3.60
2023-02-22T14:36:53.230Z,4.00
2023-02-22T14:39:46.226Z,4.10
2023-02-22T14:42:39.042Z,4.30
2023-02-22T14:45:33.461Z,4.40
2023-02-22T14:48:29.676Z,4.50
2023-02-22T14:51:26.813Z,4.10
2023-02-22T14:54:26.628Z,4.40
2023-02-22T14:57:24.697Z,4.50
2023-02-22T15:00:22.811Z,4.20
2023-02-22T15:03:29.282Z,4.40
2023-02-22T15:06:23.358Z,4.30
2023-02-22T15:09:25.050Z,4.30
2023-02-22T15:12:24.906Z,5.10
2023-02-22T15:15:22.136Z,4.40
2023-02-22T15:18:22.655Z,4.30
2023-02-22T15:21:16.320Z,4.50
2023-02-22T15:24:09.146Z,5.10
2023-02-22T15:27:06.825Z,4.20
2023-02-22T15:30:04.760Z,4.90
2023-02-22T15:33:04.098Z,3.70
2023-02-22T15:35:59.650Z,4.40
2023-02-22T15:38:55.805Z,4.50
2023-02-22T15:41:45.811Z,4.10
2023-02-22T15:44:41.012Z,4.30
2023-02-22T15:47:33.522Z,4.70
2023-02-22T15:50:27.092Z,4.40
2023-02-22T15:53:29.679Z,4.50
2023-02-22T15:56:26.716Z,4.30
2023-02-22T15:59:18.860Z,4.00
2023-02-22T16:02:20.896Z,4.10
2023-02-22T16:05:18.651Z,4.70
2023-02-22T16:08:16.983Z,4.00
2023-02-22T16:11:13.545Z,4.80
2023-02-22T16:14:06.412Z,4.30
2023-02-22T16:17:15.109Z,4.70
2023-02-22T16:20:33.807Z,5.00
2023-02-22T16:23:29.366Z,5.10
2023-02-22T16:26:31.467Z,4.80
2023-02-22T16:29:28.936Z,5.10
2023-02-22T16:32:19.066Z,5.10
2023-02-22T16:35:18.259Z,4.90
2023-02-22T16:38:17.074Z,4.80
2023-02-22T16:41:08.828Z,4.80
2023-02-22T16:43:58.706Z,4.80
2023-02-22T16:46:49.414Z,5.00
2023-02-22T16:49:41.096Z,5.00
2023-02-22T16:52:31.149Z,5.70
2023-02-22T16:55:22.046Z,5.70
2023-02-22T16:58:12.735Z,6.30
2023-02-22T17:01:02.795Z,6.30
2023-02-22T17:03:54.751Z,6.10
2023-02-22T17:06:44.905Z,5.50
2023-02-22T17:09:35.287Z,5.50
2023-02-22T17:12:25.573Z,5.40
2023-02-22T17:15:22.008Z,5.50
2023-02-22T17:18:22.669Z,5.90
2023-02-22T17:21:16.742Z,4.70
2023-02-22T17:24:08.180Z,5.10
2023-02-22T17:26:59.828Z,5.20
2023-02-22T17:29:50.176Z,5.20
2023-02-22T17:32:40.671Z,5.00
2023-02-22T17:35:31.460Z,5.70
2023-02-22T17:38:21.550Z,5.70
2023-02-22T17:41:11.974Z,6.80
2023-02-22T17:44:01.958Z,7.70
2023-02-22T17:46:53.063Z,7.80
2023-02-22T17:49:44.326Z,7.70
2023-02-22T17:52:34.536Z,8.00
2023-02-22T17:55:24.895Z,7.90
2023-02-22T17:58:15.774Z,8.60
2023-02-22T18:01:06.560Z,8.30
2023-02-22T18:03:59.067Z,8.30
2023-02-22T18:06:49.749Z,8.80
2023-02-22T18:09:42.050Z,9.10
2023-02-22T18:12:33.431Z,9.60
2023-02-22T18:15:28.365Z,9.70
2023-02-22T18:18:18.965Z,10.00
2023-02-22T18:21:09.275Z,10.00
2023-02-22T18:24:00.015Z,9.90
2023-02-22T18:26:50.510Z,9.80
2023-02-22T18:29:40.888Z,9.70
2023-02-22T18:32:32.411Z,10.80
2023-02-22T18:35:22.650Z,10.40
2023-02-22T18:38:23.389Z,11.20
2023-02-22T18:41:17.767Z,11.00
2023-02-22T18:44:10.462Z,10.90
2023-02-22T18:47:00.618Z,11.70
2023-02-22T18:49:50.696Z,11.40
2023-02-22T18:52:46.120Z,9.90
2023-02-22T18:55:38.445Z,9.80
2023-02-22T18:58:28.527Z,10.10
2023-02-22T19:01:20.686Z,9.10
2023-02-22T19:04:12.807Z,8.50
2023-02-22T19:07:03.270Z,8.20
2023-02-22T19:09:53.109Z,7.50
2023-02-22T19:12:43.371Z,7.10
2023-02-22T19:15:33.717Z,7.20
2023-02-22T19:18:25.426Z,6.10
2023-02-22T19:21:16.690Z,6.60
2023-02-22T19:24:08.292Z,6.80
2023-02-22T19:27:00.106Z,7.00
2023-02-22T19:29:50.758Z,7.30
2023-02-22T19:32:47.300Z,7.80
2023-02-22T19:35:47.618Z,6.90
2023-02-22T19:38:38.458Z,6.70
2023-02-22T19:41:28.217Z,7.30
2023-02-22T19:44:18.288Z,7.00
2023-02-22T19:47:10.172Z,7.20
2023-02-22T19:50:01.770Z,6.90
2023-02-22T19:52:53.677Z,7.80
2023-02-22T19:55:44.335Z,8.10
2023-02-22T19:58:36.793Z,8.30
2023-02-22T20:01:29.938Z,9.60
2023-02-22T20:04:22.673Z,9.30
2023-02-22T20:07:12.920Z,9.60
2023-02-22T20:10:03.312Z,9.50
2023-02-22T20:12:54.358Z,9.30
2023-02-22T20:15:46.466Z,8.90
2023-02-22T20:18:37.438Z,8.60
2023-02-22T20:21:32.039Z,8.70
2023-02-22T20:24:22.605Z,9.10
2023-02-22T20:27:13.564Z,9.90
2023-02-22T20:30:04.332Z,10.50
2023-02-22T20:32:54.491Z,10.50
2023-02-22T20:35:44.948Z,9.20
2023-02-22T20:38:35.337Z,8.80
2023-02-22T20:41:30.309Z,8.40
2023-02-22T20:44:20.959Z,7.40
2023-02-22T20:47:13.518Z,7.40
2023-02-22T20:50:03.775Z,6.90
2023-02-22T20:52:53.744Z,7.40
2023-02-22T20:55:51.365Z,6.90
2023-02-22T20:58:41.837Z,7.30
2023-02-22T21:01:32.821Z,7.00
2023-02-22T21:04:23.369Z,7.30
2023-02-22T21:07:13.352Z,7.30
2023-02-22T21:10:06.113Z,7.10
2023-02-22T21:12:58.792Z,7.40
2023-02-22T21:15:49.205Z,6.50
2023-02-22T21:18:39.411Z,6.50
2023-02-22T21:21:31.039Z,6.70
2023-02-22T21:24:20.803Z,6.60
2023-02-22T21:27:12.426Z,6.90
2023-02-22T21:30:02.713Z,6.80
2023-02-22T21:32:55.122Z,6.90
2023-02-22T21:35:47.318Z,6.40
2023-02-22T21:38:37.466Z,6.20
2023-02-22T21:41:30.537Z,5.90
2023-02-22T21:44:21.151Z,6.20
2023-02-22T21:47:11.570Z,6.10
2023-02-22T21:50:02.175Z,5.70
2023-02-22T21:52:53.241Z,5.40
2023-02-22T21:55:44.362Z,5.70
2023-02-22T21:58:34.657Z,5.90
2023-02-22T22:01:27.321Z,5.90
2023-02-22T22:04:20.039Z,6.50
2023-02-22T22:07:10.102Z,5.60
2023-02-22T22:10:00.064Z,5.30
2023-02-22T22:12:50.553Z,5.60
2023-02-22T22:15:41.142Z,5.70
2023-02-22T22:18:31.098Z,5.40
2023-02-22T22:21:23.300Z,5.90
2023-02-22T22:24:14.234Z,6.30
2023-02-22T22:27:06.716Z,6.40
2023-02-22T22:29:57.559Z,5.70
2023-02-22T22:32:47.401Z,5.50
2023-02-22T22:35:39.603Z,5.80
2023-02-22T22:38:30.489Z,6.00
2023-02-22T22:41:22.129Z,5.60
2023-02-22T22:44:15.468Z,5.70
2023-02-22T22:47:06.702Z,5.50
2023-02-22T22:50:01.582Z,5.10
2023-02-22T22:52:51.869Z,5.10
2023-02-22T22:55:43.833Z,5.20
2023-02-22T22:58:35.086Z,5.40
2023-02-22T23:01:31.892Z,5.00
2023-02-22T23:04:24.589Z,4.90
2023-02-22T23:07:14.944Z,5.00
2023-02-22T23:10:12.748Z,5.40
2023-02-22T23:13:04.221Z,5.00
2023-02-22T23:15:55.272Z,5.40
2023-02-22T23:18:44.957Z,4.60
2023-02-22T23:21:36.235Z,4.90
2023-02-22T23:24:27.835Z,5.00
2023-02-22T23:27:19.085Z,4.90
2023-02-22T23:30:15.041Z,5.10
2023-02-22T23:33:05.271Z,4.70
2023-02-22T23:35:55.752Z,4.60
2023-02-22T23:38:47.044Z,4.70
2023-02-22T23:41:38.420Z,5.10
2023-02-22T23:44:31.879Z,4.90
2023-02-22T23:47:23.235Z,4.90
2023-02-22T23:50:15.113Z,5.00
2023-02-22T23:53:06.129Z,4.90
2023-02-22T23:56:00.953Z,5.50
2023-02-22T23:58:52.280Z,5.30
